Louise S — WDE9035 — position and weather

sailwx.info

Track history (hours):
 
Tides and Currents Weather Stations Pressure Air Temp Water Temp Dewpoint Dewpoint Depression Visibility Wind Speed Wind Dir Waves Ship Positions

Louise S

Owner: CAMPBELL TRANSPORTATION COMPANY, CHARLEROI, PA. More information available from US FCC via Universal Licensing System and Coast Guard Vessel Documentation Center.

Last reported at 2015-May-01 14:33 UTC. Time now 2015-May-25 19:34 UTC.
Position N 39°06' W 084°40'.
Warning: this ship's position is 24 days out of date.

Length 45 m.

Type: Tow > 200 m length. MMSI: 367412620.

Date/timePositionNaut miles runAvg speedWind from/ knotsBaromVisibWave heightAir tempDewpointWater temp
2015-May-01 14:33N 39°06' W 084°40'7 7.1
2015-May-01 13:33N 39°05' W 084°31'4 4.4
2015-May-01 12:33N 39°04' W 084°26'7 6.6
2015-May-01 11:33N 39°01' W 084°19'6 6.3
2015-May-01 10:33N 38°55' W 084°15'5 5.2
2015-May-01 09:29N 38°50' W 084°14'3 3.6
2015-May-01 08:33N 38°48' W 084°10'1 1.0
2015-May-01 07:32N 38°48' W 084°09'0 0.0
2015-May-01 06:33N 38°48' W 084°09'0 0.0
2015-May-01 05:33N 38°48' W 084°09'0 0.0
2015-May-01 04:33N 38°48' W 084°09'3 0.8
2015-May-01 00:17N 38°49' W 084°13'3 4.1
2015-Apr-30 23:32N 38°52' W 084°14'4 4.0
2015-Apr-30 22:33N 38°55' W 084°16'5 4.7
2015-Apr-30 21:33N 38°60' W 084°18'4 4.4
2015-Apr-30 20:33N 39°03' W 084°22'2 1.7
2015-Apr-30 19:33N 39°03' W 084°25'0 0.0
2015-Apr-30 18:33N 39°03' W 084°25'0 0.0
2015-Apr-30 17:32N 39°03' W 084°25'0 0.0
2015-Apr-30 16:33N 39°03' W 084°25'0 0.3
2015-Apr-30 15:33N 39°03' W 084°25'5 4.6
2015-Apr-30 14:33N 39°07' W 084°27'4 3.9
2015-Apr-30 13:33N 39°06' W 084°32'4 4.4
2015-Apr-30 12:33N 39°04' W 084°37'2 1.8
2015-Apr-30 11:33N 39°05' W 084°39'0 0.0
2015-Apr-30 10:32N 39°05' W 084°39'0 0.0
2015-Apr-30 09:33N 39°05' W 084°39'1 0.9
2015-Apr-30 08:32N 39°06' W 084°40'5 3.7
2015-Apr-30 07:19N 39°09' W 084°45'  
Track history (hours):
 
Tides and Currents Weather Stations Pressure Air Temp Water Temp Dewpoint Dewpoint Depression Visibility Wind Speed Wind Dir Waves Ship Positions

Louise S

Owner: CAMPBELL TRANSPORTATION COMPANY, CHARLEROI, PA. More information available from US FCC via Universal Licensing System and Coast Guard Vessel Documentation Center.

Last reported at 2015-May-01 14:33 UTC. Time now 2015-May-25 19:34 UTC.
Position N 39°06' W 084°40'.
Warning: this ship's position is 24 days out of date.

Length 45 m.

Type: Tow > 200 m length. MMSI: 367412620.

Date/timePositionNaut miles runAvg speedWind from/ knotsBaromVisibWave heightAir tempDewpointWater temp
2015-May-01 14:33N 39°06' W 084°40'7 7.1
2015-May-01 13:33N 39°05' W 084°31'4 4.4
2015-May-01 12:33N 39°04' W 084°26'7 6.6
2015-May-01 11:33N 39°01' W 084°19'6 6.3
2015-May-01 10:33N 38°55' W 084°15'5 5.2
2015-May-01 09:29N 38°50' W 084°14'3 3.6
2015-May-01 08:33N 38°48' W 084°10'1 1.0
2015-May-01 07:32N 38°48' W 084°09'0 0.0
2015-May-01 06:33N 38°48' W 084°09'0 0.0
2015-May-01 05:33N 38°48' W 084°09'0 0.0
2015-May-01 04:33N 38°48' W 084°09'3 0.8
2015-May-01 00:17N 38°49' W 084°13'3 4.1
2015-Apr-30 23:32N 38°52' W 084°14'4 4.0
2015-Apr-30 22:33N 38°55' W 084°16'5 4.7
2015-Apr-30 21:33N 38°60' W 084°18'4 4.4
2015-Apr-30 20:33N 39°03' W 084°22'2 1.7
2015-Apr-30 19:33N 39°03' W 084°25'0 0.0
2015-Apr-30 18:33N 39°03' W 084°25'0 0.0
2015-Apr-30 17:32N 39°03' W 084°25'0 0.0
2015-Apr-30 16:33N 39°03' W 084°25'0 0.3
2015-Apr-30 15:33N 39°03' W 084°25'5 4.6
2015-Apr-30 14:33N 39°07' W 084°27'4 3.9
2015-Apr-30 13:33N 39°06' W 084°32'4 4.4
2015-Apr-30 12:33N 39°04' W 084°37'2 1.8
2015-Apr-30 11:33N 39°05' W 084°39'0 0.0
2015-Apr-30 10:32N 39°05' W 084°39'0 0.0
2015-Apr-30 09:33N 39°05' W 084°39'1 0.9
2015-Apr-30 08:32N 39°06' W 084°40'5 3.7
2015-Apr-30 07:19N 39°09' W 084°45'  

Dump ship's entire track history